Time;durP1;ratioP1;P1;durP2;ratioP2;P2;SDS_P1;SDS_P2;PMS_P1;PMS_P2;Temp;Humidity;BMP_temperature;BMP_pressure;BME280_temperature;BME280_humidity;BME280_pressure;Samples;Min_cycle;Max_cycle;Signal;HPM_P1;HPM_P2
2023/08/02 00:02:16;;;;;;;6.25;1.60;;;15.30;99.90;;;15.25;100.00;99291.78;5022647;28;20042;-76
2023/08/02 00:04:42;;;;;;;6.80;1.55;;;15.30;99.90;;;15.33;100.00;99293.13;5025870;28;20326;-76
2023/08/02 00:07:07;;;;;;;8.18;1.90;;;15.30;99.90;;;15.23;100.00;99302.25;5022666;28;20037;-74
2023/08/02 00:09:33;;;;;;;5.80;1.73;;;15.30;99.90;;;15.26;100.00;99289.88;5040713;28;20073;-75
2023/08/02 00:11:59;;;;;;;5.47;1.83;;;15.30;99.90;;;15.17;100.00;99284.16;5020947;28;20033;-75
2023/08/02 00:14:26;;;;;;;5.88;1.55;;;15.30;99.90;;;15.27;100.00;99289.59;5019524;28;20087;-74
2023/08/02 00:16:52;;;;;;;6.85;1.70;;;15.30;99.90;;;15.30;100.00;99285.47;5023359;28;20474;-75
2023/08/02 00:19:18;;;;;;;4.07;1.55;;;15.30;99.90;;;15.26;100.00;99276.94;5026437;28;20389;-76
2023/08/02 00:21:44;;;;;;;6.15;1.67;;;15.30;99.90;;;15.35;100.00;99290.94;5031470;28;20171;-74
2023/08/02 00:24:10;;;;;;;5.45;1.70;;;15.40;99.90;;;15.33;100.00;99282.94;5040309;28;20038;-73
2023/08/02 00:26:36;;;;;;;4.50;1.83;;;15.30;99.90;;;15.33;100.00;99288.44;5024467;28;20592;-74
2023/08/02 00:29:02;;;;;;;6.50;1.80;;;15.30;99.90;;;15.30;100.00;99280.78;5016205;28;20046;-74
2023/08/02 00:31:28;;;;;;;7.38;2.08;;;15.40;99.90;;;15.46;100.00;99284.25;5032414;28;20052;-74
2023/08/02 00:33:54;;;;;;;7.28;1.70;;;15.30;99.90;;;15.47;100.00;99279.59;5017189;28;20045;-75
2023/08/02 00:36:19;;;;;;;9.95;2.28;;;15.30;99.90;;;15.38;100.00;99282.94;5048006;28;20040;-74
2023/08/02 00:38:45;;;;;;;3.45;1.88;;;15.40;99.90;;;15.38;100.00;99282.94;5028265;28;20394;-74
2023/08/02 00:41:11;;;;;;;6.20;1.80;;;15.40;99.90;;;15.43;100.00;99284.84;5036462;28;20053;-74
2023/08/02 00:43:43;;;;;;;7.07;1.95;;;15.40;99.90;;;15.46;100.00;99283.47;5030528;28;20061;-75
2023/08/02 00:46:12;;;;;;;6.13;1.90;;;15.40;99.90;;;15.46;100.00;99284.25;5037430;28;20045;-74
2023/08/02 00:48:39;;;;;;;6.97;2.00;;;15.50;99.90;;;15.56;100.00;99286.13;5023221;28;20115;-75
2023/08/02 00:51:16;;;;;;;5.18;1.90;;;15.50;99.90;;;15.47;100.00;99280.41;5036889;28;20033;-75
2023/08/02 00:53:43;;;;;;;6.25;1.95;;;15.50;99.90;;;15.44;100.00;99278.22;5021377;28;20033;-75
2023/08/02 00:56:10;;;;;;;5.90;1.80;;;15.40;99.90;;;15.41;100.00;99284.28;5020886;28;20034;-75
2023/08/02 00:58:37;;;;;;;6.50;2.17;;;15.50;99.90;;;15.33;100.00;99258.22;5017999;28;20553;-74
2023/08/02 01:01:09;;;;;;;8.02;2.47;;;15.40;99.90;;;15.17;100.00;99260.22;5021218;28;20037;-75
2023/08/02 01:03:44;;;;;;;5.78;1.85;;;15.30;99.90;;;15.21;100.00;99276.97;5030490;28;20113;-75
2023/08/02 01:06:26;;;;;;;7.15;2.42;;;15.30;99.90;;;15.22;100.00;99264.88;5020464;28;20430;-75
2023/08/02 01:09:03;;;;;;;7.75;2.20;;;15.20;99.90;;;15.26;100.00;99260.47;5022073;28;20436;-75
2023/08/02 01:11:41;;;;;;;5.68;2.50;;;15.20;99.90;;;15.25;100.00;99261.56;5044960;28;20091;-74
2023/08/02 01:14:14;;;;;;;8.80;2.60;;;15.30;99.90;;;15.36;100.00;99265.91;5045201;28;20041;-74
2023/08/02 01:16:41;;;;;;;6.18;2.00;;;15.30;99.90;;;15.25;100.00;99267.06;5043200;28;20045;-75
2023/08/02 01:19:11;;;;;;;7.88;2.47;;;15.20;99.90;;;15.28;100.00;99257.44;5028519;28;20117;-75
2023/08/02 01:21:37;;;;;;;7.75;2.38;;;15.30;99.90;;;15.23;100.00;99250.03;5029971;28;20045;-74
2023/08/02 01:24:06;;;;;;;5.15;2.20;;;15.20;99.90;;;15.19;100.00;99237.97;5029571;28;20033;-75
2023/08/02 01:26:36;;;;;;;5.95;2.28;;;15.20;99.90;;;15.09;100.00;99233.34;5024172;28;20456;-74
2023/08/02 01:29:08;;;;;;;6.03;2.30;;;15.20;99.90;;;15.20;100.00;99234.94;5028916;28;20045;-75
2023/08/02 01:31:37;;;;;;;7.80;2.72;;;15.20;99.90;;;15.16;100.00;99239.34;5028634;28;20095;-74
2023/08/02 01:34:03;;;;;;;6.55;2.30;;;15.20;99.90;;;15.17;100.00;99229.19;5018187;28;20050;-74
2023/08/02 01:36:29;;;;;;;8.18;2.47;;;15.10;99.90;;;15.18;100.00;99233.59;5029569;28;20430;-74
2023/08/02 01:38:55;;;;;;;7.07;2.45;;;15.20;99.90;;;15.29;100.00;99228.88;5017615;28;20397;-74
2023/08/02 01:41:20;;;;;;;7.47;2.25;;;15.20;99.90;;;15.14;100.00;99214.09;5027981;28;20041;-74
2023/08/02 01:43:46;;;;;;;6.22;2.60;;;15.20;99.90;;;15.23;100.00;99214.34;5029304;28;20045;-75
2023/08/02 01:46:12;;;;;;;9.02;2.42;;;15.20;99.90;;;15.21;100.00;99220.09;5029245;28;20125;-75
2023/08/02 01:48:38;;;;;;;8.57;2.38;;;15.20;99.90;;;15.25;100.00;99214.88;5027978;28;20068;-75
2023/08/02 01:51:05;;;;;;;6.78;2.40;;;15.20;99.90;;;15.26;100.00;99213.75;5029283;28;20030;-75
2023/08/02 01:53:30;;;;;;;10.10;3.13;;;15.20;99.90;;;15.30;100.00;99225.03;5043610;28;20386;-75
2023/08/02 01:55:56;;;;;;;5.05;2.22;;;15.20;99.90;;;15.22;100.00;99218.19;5012587;28;20092;-75
2023/08/02 01:58:22;;;;;;;6.20;2.38;;;15.30;99.90;;;15.24;100.00;99215.97;5029095;28;20112;-75
2023/08/02 02:00:47;;;;;;;8.80;2.40;;;15.30;99.90;;;15.29;100.00;99218.69;5043355;28;20037;-75
2023/08/02 02:03:13;;;;;;;5.47;2.25;;;15.20;99.90;;;15.35;100.00;99214.81;5033441;28;20046;-75
2023/08/02 02:05:39;;;;;;;8.43;2.42;;;15.30;99.90;;;15.23;100.00;99211.59;5028777;28;20037;-75
2023/08/02 02:08:05;;;;;;;8.35;2.63;;;15.30;99.90;;;15.26;100.00;99210.22;5028614;28;20041;-75
2023/08/02 02:10:31;;;;;;;8.90;2.42;;;15.30;99.90;;;15.30;100.00;99201.09;5028710;28;20516;-75
2023/08/02 02:12:56;;;;;;;5.63;2.33;;;15.30;99.90;;;15.28;100.00;99202.50;5028319;28;20048;-75
2023/08/02 02:15:22;;;;;;;7.80;2.25;;;15.30;99.90;;;15.30;100.00;99203.84;5028755;28;20033;-75
2023/08/02 02:17:48;;;;;;;10.52;3.08;;;15.30;99.90;;;15.20;100.00;99181.94;5042364;28;20067;-75
2023/08/02 02:20:14;;;;;;;8.77;2.30;;;15.30;99.90;;;15.33;100.00;99203.28;5023734;28;20040;-76
2023/08/02 02:22:39;;;;;;;7.80;2.50;;;15.30;99.90;;;15.38;100.00;99200.53;5028083;28;20477;-75
2023/08/02 02:25:06;;;;;;;7.72;2.78;;;15.30;99.90;;;15.32;100.00;99201.63;5027133;28;20516;-76
2023/08/02 02:27:31;;;;;;;7.70;2.53;;;15.30;99.90;;;15.36;100.00;99213.69;5028587;28;20125;-75
2023/08/02 02:29:57;;;;;;;9.13;2.40;;;15.40;99.90;;;15.47;100.00;99221.91;5028169;28;20090;-75
2023/08/02 02:32:23;;;;;;;6.45;2.63;;;15.40;99.90;;;15.47;100.00;99219.94;5028557;28;20163;-75
2023/08/02 02:34:48;;;;;;;5.70;2.30;;;15.40;99.90;;;15.46;100.00;99223.00;5027080;28;20034;-75
2023/08/02 02:37:14;;;;;;;5.65;2.17;;;15.40;99.90;;;15.52;100.00;99216.34;5011767;28;20056;-75
2023/08/02 02:39:40;;;;;;;8.18;2.55;;;15.50;99.90;;;15.42;100.00;99213.69;5017181;28;20046;-75
2023/08/02 02:42:06;;;;;;;5.82;2.35;;;15.40;99.90;;;15.48;100.00;99220.78;5023784;28;20562;-75
2023/08/02 02:44:43;;;;;;;10.40;2.58;;;15.50;99.90;;;15.50;100.00;99216.63;5020149;28;20037;-75
2023/08/02 02:47:11;;;;;;;7.88;2.10;;;15.40;99.90;;;15.42;100.00;99219.19;5028144;28;20065;-75
2023/08/02 02:49:38;;;;;;;14.07;2.50;;;15.40;99.90;;;15.32;100.00;99201.63;5021922;28;20045;-76
2023/08/02 02:52:04;;;;;;;9.45;2.40;;;15.30;99.90;;;15.28;100.00;99222.53;5026778;28;20025;-75
2023/08/02 02:54:30;;;;;;;9.55;3.00;;;15.30;99.90;;;15.30;100.00;99208.53;5026393;28;20366;-74
2023/08/02 02:56:55;;;;;;;8.48;2.40;;;15.30;99.90;;;15.24;100.00;99215.97;5011858;28;20032;-74
2023/08/02 02:59:21;;;;;;;8.48;2.42;;;15.20;99.90;;;15.21;100.00;99222.84;5027635;28;20037;-75
2023/08/02 03:01:47;;;;;;;6.88;2.30;;;15.20;99.90;;;15.07;100.00;99210.84;5027845;28;20037;-75
2023/08/02 03:04:12;;;;;;;6.60;2.78;;;15.10;99.90;;;15.02;100.00;99216.38;5028603;28;20418;-75
2023/08/02 03:06:38;;;;;;;7.50;2.50;;;15.00;99.90;;;15.00;100.00;99211.16;5026511;28;20057;-75
2023/08/02 03:09:04;;;;;;;6.40;2.42;;;15.00;99.90;;;14.88;100.00;99200.47;5042617;28;20414;-75
2023/08/02 03:11:29;;;;;;;6.85;2.70;;;14.90;99.90;;;14.78;100.00;99195.03;5027319;28;20496;-75
2023/08/02 03:13:55;;;;;;;7.07;2.67;;;14.70;99.90;;;14.66;100.00;99200.81;5027731;28;20065;-76
2023/08/02 03:16:21;;;;;;;7.32;2.47;;;14.60;99.90;;;14.70;100.00;99196.41;5027859;28;20029;-74
2023/08/02 03:18:48;;;;;;;8.52;3.00;;;14.70;99.90;;;14.61;100.00;99184.38;5027089;28;20052;-75
2023/08/02 03:21:14;;;;;;;7.47;2.70;;;14.50;99.90;;;14.54;100.00;99165.44;5027759;28;20489;-75
2023/08/02 03:23:42;;;;;;;6.90;2.35;;;14.50;99.90;;;14.42;100.00;99167.66;5027647;28;20037;-75
2023/08/02 03:26:08;;;;;;;5.55;2.40;;;14.40;99.90;;;14.47;100.00;99175.91;5027612;28;20393;-75
2023/08/02 03:28:33;;;;;;;4.47;2.10;;;14.40;99.90;;;14.37;100.00;99160.28;5027601;28;20042;-75
2023/08/02 03:30:59;;;;;;;8.70;2.70;;;14.40;99.90;;;14.30;100.00;99165.22;5027570;28;20401;-75
2023/08/02 03:33:25;;;;;;;7.57;2.90;;;14.30;99.90;;;14.28;100.00;99159.19;5042161;28;20050;-75
2023/08/02 03:35:50;;;;;;;10.73;3.20;;;14.20;99.90;;;14.23;100.00;99158.13;5026087;28;20029;-74
2023/08/02 03:38:16;;;;;;;5.30;2.42;;;14.20;99.90;;;14.25;100.00;99163.34;5026220;28;20037;-76
2023/08/02 03:40:43;;;;;;;9.15;2.83;;;14.20;99.90;;;14.20;100.00;99158.69;5027380;28;20382;-75
2023/08/02 03:43:09;;;;;;;8.23;2.67;;;14.20;99.90;;;14.22;100.00;99167.44;5026306;28;20127;-74
2023/08/02 03:45:35;;;;;;;6.65;2.30;;;14.20;99.90;;;14.18;100.00;99163.63;5028455;28;20481;-75
2023/08/02 03:48:00;;;;;;;10.63;3.28;;;14.20;99.90;;;14.19;100.00;99161.69;5041401;28;20041;-74
2023/08/02 03:50:27;;;;;;;10.18;2.80;;;14.20;99.90;;;14.08;100.00;99152.69;5026114;28;20152;-75
2023/08/02 03:52:53;;;;;;;6.72;2.90;;;14.10;99.90;;;14.05;100.00;99150.47;5024967;28;20033;-75
2023/08/02 03:55:19;;;;;;;7.72;2.63;;;14.00;99.90;;;14.03;100.00;99139.78;5023970;28;20863;-74
2023/08/02 03:57:45;;;;;;;7.63;2.92;;;13.90;99.90;;;13.92;100.00;99133.50;5027209;28;20056;-75
2023/08/02 04:00:11;;;;;;;9.20;2.80;;;13.90;99.90;;;13.93;100.00;99120.63;5027161;28;20095;-74
2023/08/02 04:02:39;;;;;;;6.10;2.95;;;13.90;99.90;;;13.73;100.00;99097.63;5022734;28;20037;-75
2023/08/02 04:05:05;;;;;;;8.80;2.78;;;13.80;99.90;;;13.80;100.00;99102.81;5025979;28;20365;-75
2023/08/02 04:07:31;;;;;;;10.27;2.80;;;13.70;99.90;;;13.79;100.00;99091.03;5031723;28;20049;-74
2023/08/02 04:09:57;;;;;;;7.88;3.00;;;13.80;99.90;;;13.75;100.00;99086.38;5032733;28;20056;-75
2023/08/02 04:12:22;;;;;;;8.30;2.88;;;13.70;99.90;;;13.76;100.00;99079.78;5029938;28;20037;-76
2023/08/02 04:14:48;;;;;;;7.65;2.88;;;13.80;99.90;;;13.80;100.00;99072.69;5030363;28;20049;-75
2023/08/02 04:17:14;;;;;;;8.93;3.05;;;13.80;99.90;;;13.80;100.00;99067.19;5030583;28;20083;-76
2023/08/02 04:19:40;;;;;;;8.38;3.05;;;13.90;99.90;;;13.90;100.00;99086.34;5020410;28;20046;-75
2023/08/02 04:22:05;;;;;;;5.88;2.60;;;13.90;99.90;;;13.91;100.00;99082.50;5029556;28;20032;-75
2023/08/02 04:24:33;;;;;;;10.52;3.13;;;13.90;99.90;;;13.99;100.00;99083.03;5018761;28;20049;-74
2023/08/02 04:26:59;;;;;;;7.78;3.00;;;14.00;99.90;;;14.03;100.00;99079.47;5025572;28;20044;-74
2023/08/02 04:29:24;;;;;;;9.02;3.17;;;14.00;99.90;;;14.18;100.00;99083.25;5030554;28;20038;-74
2023/08/02 04:31:50;;;;;;;10.60;2.92;;;14.10;99.90;;;14.20;100.00;99087.38;5025781;28;20078;-75
2023/08/02 04:34:16;;;;;;;8.20;3.05;;;14.20;99.90;;;14.45;100.00;99101.25;5043885;28;20052;-74
2023/08/02 04:36:42;;;;;;;7.18;3.55;;;14.30;99.90;;;14.55;100.00;99103.97;5030409;28;20034;-74
2023/08/02 04:39:07;;;;;;;6.38;2.80;;;14.50;99.90;;;14.58;100.00;99105.31;5044531;28;20036;-73
2023/08/02 04:41:34;;;;;;;5.38;3.25;;;14.60;99.90;;;14.70;100.00;99096.75;5029917;28;20049;-74
2023/08/02 04:44:00;;;;;;;8.88;2.60;;;14.70;99.90;;;14.78;100.00;99099.78;5027248;28;20489;-75
2023/08/02 04:46:29;;;;;;;7.78;3.03;;;14.80;99.90;;;14.85;100.00;99098.63;5028189;28;20038;-77
2023/08/02 04:48:55;;;;;;;8.40;3.67;;;14.90;99.90;;;14.99;100.00;99105.16;5020701;28;20044;-76
2023/08/02 04:51:21;;;;;;;12.13;3.13;;;15.00;99.90;;;15.13;100.00;99121.00;5023518;28;20034;-77
2023/08/02 04:53:48;;;;;;;7.82;3.35;;;15.10;99.90;;;15.34;100.00;99117.00;5029239;28;20048;-76
2023/08/02 04:56:17;;;;;;;11.80;3.63;;;15.20;99.90;;;15.46;100.00;99124.88;5030796;28;20038;-76
2023/08/02 04:58:43;;;;;;;8.35;3.40;;;15.40;99.90;;;15.47;100.00;99122.97;5033683;28;20042;-76
2023/08/02 05:01:09;;;;;;;10.73;3.90;;;15.50;99.90;;;15.70;100.00;99132.38;5030339;28;20061;-74
2023/08/02 05:03:36;;;;;;;7.88;3.20;;;15.60;99.90;;;15.76;100.00;99139.47;5031210;28;20179;-75
2023/08/02 05:06:05;;;;;;;6.70;3.08;;;15.80;99.90;;;15.86;100.00;99135.81;5026880;28;20033;-76
2023/08/02 05:08:35;;;;;;;8.70;2.85;;;15.80;99.90;;;15.76;100.00;99139.47;5026436;28;20506;-75
2023/08/02 05:11:03;;;;;;;6.53;2.75;;;15.80;99.90;;;15.83;100.00;99139.16;5021747;28;20029;-76
2023/08/02 05:13:28;;;;;;;6.60;2.95;;;15.90;99.90;;;15.85;100.00;99128.69;5036031;28;20106;-75
2023/08/02 05:15:55;;;;;;;9.13;2.95;;;15.90;99.90;;;15.90;100.00;99136.09;5030102;28;20511;-75
2023/08/02 05:18:21;;;;;;;8.35;2.97;;;15.90;99.90;;;15.96;100.00;99134.94;5029250;28;20060;-76
2023/08/02 05:20:47;;;;;;;9.48;3.00;;;15.90;99.90;;;16.00;100.00;99138.75;5027721;28;20026;-76
2023/08/02 05:23:13;;;;;;;5.15;2.78;;;15.90;99.90;;;15.85;100.00;99136.94;5020006;28;20037;-77
2023/08/02 05:25:39;;;;;;;5.85;2.70;;;16.00;99.90;;;15.75;100.00;99131.53;5029128;28;20152;-76
2023/08/02 05:28:05;;;;;;;6.00;3.10;;;15.90;99.90;;;15.81;100.00;99119.38;5022200;28;20046;-75
2023/08/02 05:30:32;;;;;;;6.55;2.70;;;15.90;99.90;;;15.98;100.00;99134.66;5029844;28;20041;-75
2023/08/02 05:32:58;;;;;;;8.57;2.88;;;15.90;99.90;;;15.93;100.00;99136.34;5022589;28;20462;-75
2023/08/02 05:35:25;;;;;;;6.18;2.80;;;15.90;99.90;;;15.90;100.00;99147.09;5030788;28;20025;-74
2023/08/02 05:37:52;;;;;;;8.90;3.13;;;15.90;99.90;;;15.90;100.00;99136.09;5024258;28;20037;-75
2023/08/02 05:40:18;;;;;;;6.50;2.97;;;15.90;99.90;;;15.85;100.00;99145.19;5028428;28;20424;-76
2023/08/02 05:42:44;;;;;;;7.53;3.25;;;15.90;99.90;;;15.87;100.00;99131.97;5029656;28;20037;-75
2023/08/02 05:45:11;;;;;;;9.77;3.78;;;15.90;99.90;;;15.79;100.00;99136.19;5023579;28;20045;-75
2023/08/02 05:47:36;;;;;;;12.50;2.90;;;15.80;99.90;;;15.68;100.00;99127.19;5030269;28;20505;-72
2023/08/02 05:50:03;;;;;;;9.55;2.80;;;15.80;99.90;;;15.69;100.00;99125.25;5013141;28;20171;-73
2023/08/02 05:52:29;;;;;;;8.27;3.20;;;15.70;99.90;;;15.60;100.00;99130.53;5021635;28;20108;-74
2023/08/02 05:54:55;;;;;;;9.20;3.00;;;15.80;99.90;;;15.61;100.00;99115.69;5021587;28;20029;-73
2023/08/02 05:57:21;;;;;;;6.40;3.03;;;15.70;99.90;;;15.62;100.00;99117.31;5023069;28;20056;-73
2023/08/02 05:59:50;;;;;;;4.85;3.00;;;15.70;99.90;;;15.54;100.00;99109.72;5018748;28;20045;-74
2023/08/02 06:02:16;;;;;;;7.88;3.92;;;15.60;99.90;;;15.51;100.00;99111.09;5020980;28;20084;-74
2023/08/02 06:04:45;;;;;;;4.85;3.00;;;15.60;99.90;;;15.53;100.00;99102.56;5020860;28;20026;-73
2023/08/02 06:07:11;;;;;;;6.95;2.95;;;15.60;99.90;;;15.49;100.00;99090.53;5042526;28;20044;-74
2023/08/02 06:09:38;;;;;;;7.45;2.85;;;15.60;99.90;;;15.62;100.00;99083.53;5028400;28;20124;-73
2023/08/02 06:12:04;;;;;;;10.73;3.40;;;15.70;99.90;;;15.68;100.00;99082.38;5027446;28;20049;-73
2023/08/02 06:14:30;;;;;;;10.32;3.67;;;15.70;99.90;;;15.71;100.00;99076.28;5027666;28;20433;-72
2023/08/02 06:16:56;;;;;;;7.45;2.90;;;15.80;99.90;;;15.66;100.00;99087.34;5028066;28;20069;-74
2023/08/02 06:19:22;;;;;;;8.00;2.95;;;15.80;99.90;;;15.68;100.00;99085.13;5029637;28;20025;-77
2023/08/02 06:21:47;;;;;;;8.75;3.22;;;15.80;99.90;;;15.97;100.00;99089.81;5028732;28;20501;-77
2023/08/02 06:24:13;;;;;;;6.13;2.67;;;16.00;99.90;;;16.25;100.00;99096.41;5029202;28;20103;-75
2023/08/02 06:26:39;;;;;;;7.00;2.60;;;16.30;99.90;;;16.48;100.00;99082.09;5043620;28;20034;-75
2023/08/02 06:29:06;;;;;;;5.90;2.17;;;16.60;99.90;;;16.85;100.00;99091.53;5011939;28;20500;-76
2023/08/02 06:31:32;;;;;;;7.60;2.60;;;16.90;99.90;;;17.00;100.00;99082.28;5024949;28;20529;-76
2023/08/02 06:33:58;;;;;;;4.45;2.38;;;17.10;99.90;;;17.31;100.00;99091.97;5028794;28;20524;-76
2023/08/02 06:36:24;;;;;;;7.68;2.40;;;17.40;99.90;;;17.39;100.00;99072.84;5031028;28;20042;-75
2023/08/02 06:38:49;;;;;;;5.90;2.15;;;17.70;99.90;;;17.26;100.00;99081.88;5026878;28;20048;-77
2023/08/02 06:41:15;;;;;;;6.93;2.40;;;17.60;99.90;;;17.19;100.00;99089.69;5025317;28;20040;-75
2023/08/02 06:43:41;;;;;;;6.43;2.17;;;17.50;99.90;;;17.42;100.00;99098.16;5028349;28;20033;-76
2023/08/02 06:46:07;;;;;;;4.88;2.40;;;17.60;99.90;;;17.56;100.00;99101.78;5041993;28;20056;-79
2023/08/02 06:48:32;;;;;;;4.45;2.00;;;17.80;99.90;;;17.57;100.00;99110.88;5028594;28;20042;-76
2023/08/02 06:50:59;;;;;;;5.13;1.92;;;17.80;99.90;;;17.60;100.00;99104.75;5010251;28;20032;-76
2023/08/02 06:53:25;;;;;;;4.53;1.75;;;17.90;99.90;;;17.87;100.00;99086.63;5023145;28;20176;-78
2023/08/02 06:55:51;;;;;;;7.70;1.95;;;18.10;99.90;;;18.03;100.00;99106.50;5019723;28;20052;-77
2023/08/02 06:58:16;;;;;;;4.10;1.85;;;18.30;99.90;;;17.93;100.00;99102.00;5028325;28;20099;-76
2023/08/02 07:00:42;;;;;;;6.05;1.90;;;18.20;99.90;;;18.11;100.00;99097.53;5021240;28;20386;-76
2023/08/02 07:03:08;;;;;;;6.32;2.10;;;18.30;99.90;;;18.52;100.00;99102.22;5027939;28;20124;-75
2023/08/02 07:05:34;;;;;;;4.13;1.60;;;18.50;99.90;;;18.72;100.00;99099.38;5027185;28;20124;-75
2023/08/02 07:08:02;;;;;;;3.55;1.60;;;18.70;99.90;;;18.93;100.00;99110.78;5024300;28;20054;-77
2023/08/02 07:10:29;;;;;;;;;;;18.90;99.90;;;18.85;100.00;99111.53;5028015;28;20042;-76
2023/08/02 07:12:56;;;;;;;3.13;1.50;;;18.90;99.90;;;18.99;100.00;99100.47;5025889;28;19924;-76
2023/08/02 07:15:21;;;;;;;6.37;2.03;;;19.00;99.90;;;19.14;100.00;99085.50;5013337;28;20042;-75
2023/08/02 07:17:49;;;;;;;6.05;1.75;;;19.10;99.90;;;19.27;100.00;99084.59;5002853;28;20049;-74
2023/08/02 07:20:15;;;;;;;4.95;2.15;;;19.20;99.90;;;18.91;100.00;99071.59;5030198;28;20389;-75
2023/08/02 07:22:44;;;;;;;5.55;1.90;;;19.20;99.90;;;18.59;100.00;99062.38;5028963;28;20041;-76
2023/08/02 07:25:10;;;;;;;4.15;1.67;;;19.00;99.90;;;18.68;100.00;99050.25;5022976;28;20080;-74
2023/08/02 07:27:38;;;;;;;4.50;1.50;;;19.00;99.90;;;18.97;100.00;99051.00;5013769;28;20045;-75
2023/08/02 07:30:04;;;;;;;5.07;1.70;;;19.20;99.90;;;18.90;100.00;99053.38;5027058;28;20371;-76
2023/08/02 07:32:33;;;;;;;4.50;1.48;;;19.20;99.90;;;18.79;100.00;99056.38;5044905;28;20046;-75
2023/08/02 07:34:59;;;;;;;2.92;1.65;;;19.10;99.90;;;18.77;100.00;99058.63;5030945;28;20124;-75
2023/08/02 07:37:28;;;;;;;6.50;1.63;;;19.00;99.90;;;18.70;100.00;99052.72;5039152;28;20042;-76
2023/08/02 07:39:55;;;;;;;4.55;1.60;;;19.10;99.90;;;19.00;100.00;99055.94;5022350;28;20033;-73
2023/08/02 07:42:21;;;;;;;5.07;1.63;;;19.20;99.90;;;19.33;100.00;99052.94;5032989;28;20038;-75
2023/08/02 07:45:09;;;;;;;2.90;1.50;;;19.40;99.90;;;19.75;100.00;99058.22;5029039;28;20040;-73
2023/08/02 07:47:36;;;;;;;5.32;1.42;;;19.70;99.90;;;19.74;100.00;99041.97;5025625;28;20064;-76
2023/08/02 07:50:03;;;;;;;3.42;1.50;;;19.80;99.90;;;19.90;100.00;99045.97;5055926;28;20041;-76
2023/08/02 07:52:29;;;;;;;4.43;1.58;;;20.00;99.90;;;19.83;100.00;99048.34;5031196;28;20033;-75
2023/08/02 07:54:56;;;;;;;3.17;1.35;;;19.90;99.90;;;19.72;100.00;99044.22;5039810;28;20041;-76
2023/08/02 07:57:30;;;;;;;4.82;1.40;;;19.90;99.90;;;19.63;100.00;99028.41;5039717;28;20099;-77
2023/08/02 07:59:57;;;;;;;4.28;1.65;;;19.80;99.90;;;19.49;100.00;99034.00;5050335;28;20456;-74
2023/08/02 08:02:25;;;;;;;4.30;1.60;;;19.70;99.90;;;19.40;100.00;99036.75;5034079;28;20034;-75
2023/08/02 08:04:52;;;;;;;3.35;1.40;;;19.50;99.90;;;19.37;100.00;99015.25;5029762;28;20049;-74
2023/08/02 08:07:18;;;;;;;6.47;1.90;;;19.50;99.90;;;19.60;100.00;99014.41;5040303;28;20065;-75
2023/08/02 08:09:44;;;;;;;5.93;1.58;;;19.70;99.90;;;20.11;100.00;99014.94;5021687;28;20065;-75
2023/08/02 08:12:11;;;;;;;4.55;2.13;;;20.00;99.90;;;20.39;100.00;99006.38;5029347;28;20068;-77
2023/08/02 08:14:38;;;;;;;4.20;1.35;;;;;;;20.71;100.00;99015.41;5030821;28;20033;-76
2023/08/02 08:17:04;;;;;;;2.80;1.50;;;20.50;99.90;;;20.36;100.00;99018.94;5019508;28;20480;-75
2023/08/02 08:19:33;;;;;;;3.08;1.50;;;20.80;99.90;;;19.80;100.00;99015.78;5031895;28;20033;-76
2023/08/02 08:21:58;;;;;;;3.30;1.40;;;20.30;99.90;;;19.90;100.00;99009.16;5040049;28;20044;-77
2023/08/02 08:24:24;;;;;;;4.38;1.50;;;20.10;99.90;;;19.67;100.00;99000.91;5018532;28;20029;-74
2023/08/02 08:26:50;;;;;;;4.93;1.73;;;20.10;99.90;;;20.17;100.00;98999.03;5030546;28;20105;-75
2023/08/02 08:29:17;;;;;;;3.85;1.40;;;20.20;99.90;;;20.59;100.00;98991.13;5026894;28;20513;-74
2023/08/02 08:31:43;;;;;;;3.75;1.30;;;20.60;99.90;;;20.21;100.00;98994.47;5021581;28;20382;-75
2023/08/02 08:34:08;;;;;;;4.25;1.45;;;20.60;99.90;;;20.30;100.00;98977.88;5024295;28;20128;-76
2023/08/02 08:36:35;;;;;;;4.43;1.63;;;20.50;99.90;;;20.48;100.00;98987.03;5025358;28;20477;-77
2023/08/02 08:39:02;;;;;;;2.65;1.33;;;20.70;99.90;;;20.45;100.00;98979.38;5025469;28;20038;-76
2023/08/02 08:41:29;;;;;;;3.42;1.50;;;20.60;99.90;;;20.72;100.00;98972.72;5019597;28;20041;-76
2023/08/02 08:43:55;;;;;;;4.40;1.88;;;20.80;99.90;;;21.01;100.00;98970.44;5025571;28;20033;-76
2023/08/02 08:46:23;;;;;;;4.65;1.83;;;21.00;99.90;;;21.39;100.00;98984.41;5032111;28;20037;-76
2023/08/02 08:48:48;;;;;;;;;;;21.40;99.90;;;20.98;100.00;98963.59;5019137;28;20045;-77
2023/08/02 08:51:21;;;;;;;4.25;1.50;;;21.20;99.90;;;20.57;100.00;98962.13;5013813;28;20429;-76
2023/08/02 08:53:48;;;;;;;4.93;1.60;;;21.00;99.90;;;20.38;100.00;98949.38;5038158;28;20030;-76
2023/08/02 08:56:17;;;;;;;4.28;1.73;;;20.80;99.90;;;20.24;100.00;98957.84;5021711;28;20035;-76
2023/08/02 08:58:43;;;;;;;4.43;1.60;;;20.60;99.90;;;20.20;100.00;98938.31;5029185;28;20097;-76
2023/08/02 09:01:10;;;;;;;4.63;1.77;;;20.50;99.90;;;20.36;100.00;98946.13;5032318;28;20034;-76
2023/08/02 09:03:36;;;;;;;5.00;1.90;;;20.60;99.90;;;20.15;100.00;98932.91;5024628;28;20076;-76
2023/08/02 09:06:04;;;;;;;6.10;1.92;;;20.50;99.90;;;19.88;100.00;98920.91;5027049;28;20061;-78
2023/08/02 09:08:44;;;;;;;2.92;1.50;;;20.30;99.90;;;19.82;100.00;98936.03;5037816;28;20493;-75
2023/08/02 09:11:11;;;;;;;4.07;1.80;;;20.10;99.90;;;19.79;100.00;98918.16;5030979;28;20446;-76
2023/08/02 09:13:37;;;;;;;4.68;1.92;;;20.00;99.90;;;19.65;100.00;98921.03;5023564;28;20441;-77
2023/08/02 09:16:06;;;;;;;4.20;1.83;;;20.00;99.90;;;19.60;100.00;98901.00;5037238;28;20038;-77
2023/08/02 09:18:47;;;;;;;5.80;1.90;;;19.90;99.90;;;19.64;100.00;98905.59;5027054;28;20065;-76
2023/08/02 09:21:22;;;;;;;4.18;1.85;;;19.90;99.90;;;19.89;100.00;98894.91;5035207;28;20046;-76
2023/08/02 09:23:55;;;;;;;3.55;1.80;;;20.10;99.90;;;20.09;100.00;98898.22;5020457;28;20128;-76
2023/08/02 09:26:22;;;;;;;6.97;1.80;;;20.20;99.90;;;20.17;100.00;98878.06;5012424;28;20117;-77
2023/08/02 09:29:06;;;;;;;5.07;2.13;;;20.30;99.90;;;19.93;100.00;98862.72;5015148;28;20040;-77
2023/08/02 09:31:35;;;;;;;4.78;2.30;;;20.30;99.90;;;20.03;100.00;98869.91;5025927;28;20042;-77
2023/08/02 09:34:02;;;;;;;3.90;2.05;;;20.30;99.90;;;19.96;100.00;98853.75;5031799;28;20054;-77
2023/08/02 09:36:33;;;;;;;3.80;1.80;;;20.30;99.90;;;19.89;100.00;98856.19;5038654;28;20094;-76
2023/08/02 09:39:18;;;;;;;6.47;2.15;;;20.20;99.90;;;19.94;100.00;98842.22;5029432;28;20029;-76
2023/08/02 09:41:44;;;;;;;6.28;2.53;;;20.20;99.90;;;19.81;100.00;98848.66;5026317;28;20045;-76
2023/08/02 09:44:23;;;;;;;7.93;2.00;;;20.20;99.90;;;19.98;100.00;98867.25;5026619;28;20055;-77
2023/08/02 09:46:49;;;;;;;;;;;20.20;99.90;;;19.72;100.00;98851.41;5024767;28;20039;-77
2023/08/02 09:49:20;;;;;;;5.75;2.20;;;20.10;99.90;;;19.13;100.00;98844.22;5028403;28;19917;-77
2023/08/02 09:51:46;;;;;;;5.00;2.17;;;19.70;99.90;;;18.71;100.00;98822.34;5028312;28;20072;-76
2023/08/02 09:54:16;;;;;;;4.82;2.20;;;19.20;99.90;;;18.60;100.00;98819.03;5019009;28;20049;-77
2023/08/02 09:56:43;;;;;;;7.15;2.63;;;19.00;99.90;;;18.23;100.00;98816.34;5030449;28;20484;-77
2023/08/02 09:59:09;;;;;;;5.32;2.42;;;18.60;99.90;;;18.04;100.00;98779.84;5036774;28;20076;-77
2023/08/02 10:01:36;;;;;;;6.80;2.50;;;18.40;99.90;;;17.96;100.00;98751.03;5031623;28;20045;-77
2023/08/02 10:04:06;;;;;;;6.20;2.83;;;18.10;99.90;;;17.91;100.00;98757.47;5025337;28;20037;-80
2023/08/02 10:06:46;;;;;;;4.90;2.78;;;18.10;99.90;;;18.18;100.00;98744.72;5023609;28;20508;-76
2023/08/02 10:09:25;;;;;;;5.95;2.95;;;18.20;99.90;;;18.24;100.00;98740.69;5021493;28;20065;-78
2023/08/02 10:11:57;;;;;;;6.93;2.97;;;18.50;99.90;;;18.20;100.00;98720.38;5030985;28;20038;-79
2023/08/02 10:14:24;;;;;;;6.70;2.80;;;18.50;99.90;;;18.12;100.00;98732.19;5024589;28;20045;-79